createdAt,value
2023-04-30T00:00:10.979Z,13.95
2023-04-30T00:02:44.530Z,13.95
2023-04-30T00:05:21.709Z,13.76
2023-04-30T00:07:53.223Z,13.77
2023-04-30T00:10:29.752Z,13.72
2023-04-30T00:12:58.723Z,13.78
2023-04-30T00:15:29.244Z,13.70
2023-04-30T00:18:00.840Z,13.81
2023-04-30T00:20:30.310Z,13.52
2023-04-30T00:23:10.762Z,13.62
2023-04-30T00:25:40.160Z,13.50
2023-04-30T00:28:17.806Z,13.47
2023-04-30T00:30:49.293Z,13.47
2023-04-30T00:33:17.683Z,13.41
2023-04-30T00:35:48.479Z,13.52
2023-04-30T00:38:20.686Z,13.57
2023-04-30T00:40:52.829Z,13.39
2023-04-30T00:43:22.676Z,13.13
2023-04-30T00:45:54.072Z,13.30
2023-04-30T00:48:29.010Z,13.31
2023-04-30T00:51:08.056Z,13.37
2023-04-30T00:53:43.104Z,13.11
2023-04-30T00:56:18.472Z,13.26
2023-04-30T00:58:53.053Z,13.19
2023-04-30T01:01:22.534Z,13.11
2023-04-30T01:04:03.107Z,13.14
2023-04-30T01:06:33.054Z,13.23
2023-04-30T01:09:14.503Z,13.04
2023-04-30T01:11:51.337Z,13.03
2023-04-30T01:14:31.370Z,13.06
2023-04-30T01:17:09.565Z,12.90
2023-04-30T01:19:46.196Z,12.92
2023-04-30T01:22:35.569Z,12.82
2023-04-30T01:25:39.256Z,12.66
2023-04-30T01:28:16.639Z,12.83
2023-04-30T01:30:46.853Z,12.87
2023-04-30T01:33:16.264Z,12.97
2023-04-30T01:36:13.325Z,12.77
2023-04-30T01:39:02.739Z,12.93
2023-04-30T01:41:36.523Z,13.08
2023-04-30T01:44:31.292Z,12.75
2023-04-30T01:47:07.480Z,12.98
2023-04-30T01:49:49.355Z,12.79
2023-04-30T01:52:28.417Z,13.05
2023-04-30T01:55:07.267Z,13.03
2023-04-30T01:57:49.630Z,12.88
2023-04-30T02:00:29.438Z,12.85
2023-04-30T02:03:12.979Z,13.09
2023-04-30T02:05:43.925Z,12.66
2023-04-30T02:08:17.783Z,12.92
2023-04-30T02:10:48.173Z,12.88
2023-04-30T02:13:24.585Z,12.82
2023-04-30T02:16:00.277Z,12.72
2023-04-30T02:18:31.760Z,12.72
2023-04-30T02:21:03.168Z,12.69
2023-04-30T02:23:36.406Z,12.80
2023-04-30T02:26:06.061Z,12.71
2023-04-30T02:28:37.491Z,12.79
2023-04-30T02:31:08.765Z,12.76
2023-04-30T02:33:39.509Z,12.85
2023-04-30T02:36:09.946Z,13.04
2023-04-30T02:38:52.465Z,12.69
2023-04-30T02:41:31.135Z,12.88
2023-04-30T02:44:08.092Z,12.73
2023-04-30T02:46:49.475Z,12.50
2023-04-30T02:49:17.889Z,12.53
2023-04-30T02:51:47.144Z,12.36
2023-04-30T02:54:17.945Z,12.45
2023-04-30T02:56:47.545Z,12.67
2023-04-30T02:59:21.025Z,12.58
2023-04-30T03:01:59.115Z,12.30
2023-04-30T03:04:27.850Z,12.67
2023-04-30T03:07:02.835Z,12.53
2023-04-30T03:09:34.528Z,12.41
2023-04-30T03:12:04.312Z,12.53
2023-04-30T03:14:38.864Z,12.50
2023-04-30T03:17:13.927Z,12.48
2023-04-30T03:19:42.884Z,12.48
2023-04-30T03:22:12.978Z,12.52
2023-04-30T03:24:44.549Z,12.68
2023-04-30T03:27:17.010Z,12.55
2023-04-30T03:29:49.431Z,12.53
2023-04-30T03:32:30.435Z,12.56
2023-04-30T03:35:00.164Z,12.33
2023-04-30T03:37:31.842Z,12.46
2023-04-30T03:39:59.946Z,12.47
2023-04-30T03:42:38.325Z,12.70
2023-04-30T03:45:09.074Z,12.52
2023-04-30T03:47:52.811Z,12.43
2023-04-30T03:50:21.823Z,12.42
2023-04-30T03:52:51.076Z,12.40
2023-04-30T03:55:20.499Z,12.31
2023-04-30T03:57:50.927Z,12.43
2023-04-30T04:00:25.066Z,12.33
2023-04-30T04:03:01.435Z,12.44
2023-04-30T04:05:36.819Z,12.15
2023-04-30T04:08:16.903Z,12.34
2023-04-30T04:10:56.542Z,12.18
2023-04-30T04:13:33.786Z,12.31
2023-04-30T04:16:10.915Z,12.47
2023-04-30T04:18:50.440Z,12.57
2023-04-30T04:21:20.330Z,12.53
2023-04-30T04:23:51.187Z,12.49
2023-04-30T04:26:26.314Z,12.70
2023-04-30T04:29:00.478Z,12.88
2023-04-30T04:31:34.837Z,12.79
2023-04-30T04:34:15.786Z,12.78
2023-04-30T04:36:51.321Z,12.83
2023-04-30T04:39:24.969Z,12.75
2023-04-30T04:42:02.037Z,12.81
2023-04-30T04:44:36.997Z,12.76
2023-04-30T04:47:07.860Z,12.79
2023-04-30T04:49:43.606Z,12.89
2023-04-30T04:52:18.082Z,12.97
2023-04-30T04:54:55.498Z,12.98
2023-04-30T04:57:24.002Z,13.01
2023-04-30T04:59:55.500Z,13.04
2023-04-30T05:02:29.892Z,13.01
2023-04-30T05:05:03.113Z,12.95
2023-04-30T05:07:32.683Z,13.14
2023-04-30T05:10:10.298Z,13.05
2023-04-30T05:12:44.000Z,13.16
2023-04-30T05:15:16.206Z,13.14
2023-04-30T05:17:45.723Z,13.31
2023-04-30T05:20:29.337Z,13.27
2023-04-30T05:22:57.462Z,13.37
2023-04-30T05:25:25.526Z,13.50
2023-04-30T05:27:57.203Z,13.40
2023-04-30T05:30:31.038Z,13.53
2023-04-30T05:33:00.587Z,13.66
2023-04-30T05:35:36.402Z,13.45
2023-04-30T05:38:08.304Z,13.58
2023-04-30T05:40:47.297Z,13.63
2023-04-30T05:43:17.456Z,13.61
2023-04-30T05:45:53.198Z,13.58
2023-04-30T05:48:34.505Z,13.84
2023-04-30T05:51:06.823Z,13.66
2023-04-30T05:53:35.998Z,13.74
2023-04-30T05:56:14.866Z,13.61
2023-04-30T05:58:46.918Z,13.64
2023-04-30T06:01:19.495Z,13.72
2023-04-30T06:03:51.123Z,13.76
2023-04-30T06:06:34.818Z,13.60
2023-04-30T06:09:11.987Z,13.94
2023-04-30T06:11:42.362Z,14.03
2023-04-30T06:14:17.659Z,13.82
2023-04-30T06:16:47.411Z,13.98
2023-04-30T06:19:19.222Z,13.95
2023-04-30T06:21:52.112Z,13.93
2023-04-30T06:24:22.204Z,13.93
2023-04-30T06:26:52.171Z,13.92
2023-04-30T06:29:21.307Z,13.96
2023-04-30T06:31:52.387Z,13.66
2023-04-30T06:34:20.636Z,13.63
2023-04-30T06:36:52.734Z,13.63
2023-04-30T06:39:24.686Z,13.90
2023-04-30T06:41:53.684Z,13.88
2023-04-30T06:44:39.534Z,13.85
2023-04-30T06:47:09.881Z,13.86
2023-04-30T06:49:41.553Z,13.70
2023-04-30T06:52:16.486Z,13.87
2023-04-30T06:54:51.370Z,13.86
2023-04-30T06:57:25.071Z,13.81
2023-04-30T06:59:56.931Z,13.97
2023-04-30T07:02:25.927Z,13.98
2023-04-30T07:04:57.734Z,14.00
2023-04-30T07:07:34.855Z,14.02
2023-04-30T07:10:06.482Z,14.12
2023-04-30T07:12:35.407Z,14.22
2023-04-30T07:15:06.940Z,14.02
2023-04-30T07:17:41.008Z,14.07
2023-04-30T07:20:24.703Z,14.07
2023-04-30T07:23:08.573Z,13.82
2023-04-30T07:25:39.522Z,13.92
2023-04-30T07:28:08.919Z,13.96
2023-04-30T07:30:37.238Z,14.27
2023-04-30T07:33:09.747Z,14.24
2023-04-30T07:35:40.471Z,14.40
2023-04-30T07:38:20.808Z,14.38
2023-04-30T07:40:49.189Z,14.52
2023-04-30T07:43:27.433Z,14.44
2023-04-30T07:45:55.943Z,14.33
2023-04-30T07:48:25.169Z,14.26
2023-04-30T07:50:59.667Z,14.59
2023-04-30T07:53:33.765Z,14.48
2023-04-30T07:56:05.083Z,14.79
2023-04-30T07:58:33.197Z,14.57
2023-04-30T08:01:01.313Z,14.51
2023-04-30T08:03:30.565Z,14.52
2023-04-30T08:05:59.330Z,14.60
2023-04-30T08:08:40.955Z,14.70
2023-04-30T08:11:14.219Z,14.50
2023-04-30T08:13:51.602Z,14.63
2023-04-30T08:16:24.764Z,14.65
2023-04-30T08:18:59.512Z,14.65
2023-04-30T08:21:31.517Z,14.73
2023-04-30T08:24:16.905Z,14.77
2023-04-30T08:26:45.665Z,14.54
2023-04-30T08:29:21.895Z,14.61
2023-04-30T08:31:52.723Z,14.75
2023-04-30T08:34:29.684Z,14.90
2023-04-30T08:36:58.436Z,14.89
2023-04-30T08:39:42.441Z,15.04
2023-04-30T08:42:15.276Z,14.99
2023-04-30T08:44:46.610Z,14.99
2023-04-30T08:47:21.347Z,14.67
2023-04-30T08:49:50.413Z,14.83
2023-04-30T08:52:21.199Z,14.43
2023-04-30T08:54:54.656Z,14.70
2023-04-30T08:57:23.688Z,14.75
2023-04-30T08:59:53.097Z,14.81
2023-04-30T09:02:22.475Z,15.05
2023-04-30T09:04:54.423Z,15.03
2023-04-30T09:07:27.812Z,15.08
2023-04-30T09:10:02.747Z,15.30
2023-04-30T09:12:37.264Z,15.10
2023-04-30T09:15:09.105Z,15.25
2023-04-30T09:17:39.547Z,15.16
2023-04-30T09:20:12.274Z,15.17
2023-04-30T09:22:42.267Z,15.19
2023-04-30T09:25:29.230Z,15.18
2023-04-30T09:28:09.423Z,15.27
2023-04-30T09:30:38.944Z,15.35
2023-04-30T09:33:11.986Z,15.46
2023-04-30T09:35:47.165Z,15.28
2023-04-30T09:38:36.105Z,15.41
2023-04-30T09:41:08.768Z,15.48
2023-04-30T09:43:53.836Z,15.48
2023-04-30T09:46:25.710Z,15.71
2023-04-30T09:49:04.456Z,15.72
2023-04-30T09:51:36.188Z,15.65
2023-04-30T09:54:12.865Z,15.95
2023-04-30T09:56:45.460Z,16.03
2023-04-30T09:59:20.022Z,15.68
2023-04-30T10:02:01.737Z,15.85
2023-04-30T10:04:33.866Z,15.96
2023-04-30T10:07:12.085Z,16.05
2023-04-30T10:09:48.843Z,15.95
2023-04-30T10:12:24.928Z,15.88
2023-04-30T10:14:56.255Z,15.94
2023-04-30T10:17:28.451Z,16.22
2023-04-30T10:20:00.998Z,16.16
2023-04-30T10:22:38.470Z,15.98
2023-04-30T10:25:12.637Z,16.35
2023-04-30T10:27:57.219Z,16.42
2023-04-30T10:30:27.234Z,16.66
2023-04-30T10:33:06.570Z,16.53
2023-04-30T10:35:46.178Z,16.64
2023-04-30T10:38:27.085Z,16.88
2023-04-30T10:41:00.469Z,17.02
2023-04-30T10:43:47.711Z,16.89
2023-04-30T10:46:25.995Z,17.02
2023-04-30T10:48:57.394Z,16.89
2023-04-30T10:51:57.093Z,16.66
2023-04-30T10:54:29.245Z,17.18
2023-04-30T10:57:14.559Z,17.08
2023-04-30T11:00:00.227Z,17.28
2023-04-30T11:02:41.676Z,17.57
2023-04-30T11:05:12.883Z,17.87
2023-04-30T11:07:54.597Z,17.57
2023-04-30T11:10:27.545Z,17.07
2023-04-30T11:12:57.805Z,16.94
2023-04-30T11:15:39.874Z,17.23
2023-04-30T11:18:14.813Z,17.07
2023-04-30T11:20:51.173Z,16.97
2023-04-30T11:23:38.416Z,16.59
2023-04-30T11:26:15.650Z,16.62
2023-04-30T11:28:58.438Z,16.66
2023-04-30T11:31:40.500Z,16.65
2023-04-30T11:34:15.776Z,16.40
2023-04-30T11:36:48.821Z,16.34
2023-04-30T11:39:23.057Z,16.01
2023-04-30T11:41:53.618Z,16.04
2023-04-30T11:44:35.245Z,16.06
2023-04-30T11:47:07.470Z,16.11
2023-04-30T11:49:39.698Z,16.27
2023-04-30T11:52:09.543Z,16.24
2023-04-30T11:54:42.010Z,16.38
2023-04-30T11:57:12.643Z,16.47
2023-04-30T11:59:42.247Z,16.56
2023-04-30T12:02:16.600Z,16.72
2023-04-30T12:04:47.677Z,16.86
2023-04-30T12:09:56.437Z,16.64
2023-04-30T12:12:31.673Z,16.63
2023-04-30T12:15:13.421Z,16.55
2023-04-30T12:17:43.249Z,16.50
2023-04-30T12:20:15.059Z,16.56
2023-04-30T12:22:49.066Z,16.75
2023-04-30T12:25:24.225Z,16.81
2023-04-30T12:27:53.809Z,17.06
2023-04-30T12:30:23.984Z,17.75
2023-04-30T12:33:06.051Z,18.32
2023-04-30T12:35:35.646Z,18.24
2023-04-30T12:38:06.371Z,18.53
2023-04-30T12:40:43.260Z,18.55
2023-04-30T12:43:13.695Z,18.16
2023-04-30T12:45:51.622Z,17.81
2023-04-30T12:48:26.819Z,17.17
2023-04-30T12:50:59.889Z,17.08
2023-04-30T12:53:31.263Z,16.78
2023-04-30T12:56:10.437Z,16.71
2023-04-30T12:58:46.819Z,16.63
2023-04-30T13:01:26.069Z,16.85
2023-04-30T13:04:12.371Z,16.86
2023-04-30T13:06:40.821Z,17.10
2023-04-30T13:09:15.234Z,16.90
2023-04-30T13:11:44.975Z,17.20
2023-04-30T13:14:14.420Z,17.06
2023-04-30T13:16:45.805Z,17.11
2023-04-30T13:19:26.191Z,17.15
2023-04-30T13:21:57.338Z,18.06
2023-04-30T13:24:28.815Z,18.38
2023-04-30T13:27:00.337Z,18.42
2023-04-30T13:29:29.699Z,19.20
2023-04-30T13:31:59.661Z,19.68
2023-04-30T13:34:30.278Z,18.77
2023-04-30T13:37:03.062Z,18.87
2023-04-30T13:39:35.053Z,19.29
2023-04-30T13:42:12.501Z,19.62
2023-04-30T13:44:45.508Z,19.92
2023-04-30T13:47:16.103Z,20.22
2023-04-30T13:49:54.579Z,20.25
2023-04-30T13:52:26.161Z,20.67
2023-04-30T13:54:57.751Z,21.10
2023-04-30T13:57:34.370Z,20.75
2023-04-30T14:00:06.301Z,20.19
2023-04-30T14:02:58.297Z,20.16
2023-04-30T14:05:36.740Z,20.69
2023-04-30T14:08:06.309Z,21.35
2023-04-30T14:10:40.893Z,21.41
2023-04-30T14:13:11.148Z,21.10
2023-04-30T14:15:40.936Z,21.41
2023-04-30T14:18:14.328Z,21.43
2023-04-30T14:20:53.792Z,20.75
2023-04-30T14:23:24.217Z,20.38
2023-04-30T14:25:54.122Z,21.03
2023-04-30T14:28:27.545Z,19.98
2023-04-30T14:31:05.424Z,19.19
2023-04-30T14:33:33.787Z,18.53
2023-04-30T14:36:06.825Z,18.42
2023-04-30T14:38:40.722Z,18.21
2023-04-30T14:41:10.328Z,18.07
2023-04-30T14:43:41.299Z,18.04
2023-04-30T14:46:20.507Z,18.63
2023-04-30T14:48:50.934Z,18.95
2023-04-30T14:51:22.259Z,18.45
2023-04-30T14:53:53.523Z,18.60
2023-04-30T14:56:22.067Z,18.18
2023-04-30T14:58:50.957Z,18.13
2023-04-30T15:01:19.031Z,19.26
2023-04-30T15:03:49.014Z,19.69
2023-04-30T15:06:32.644Z,20.12
2023-04-30T15:09:07.637Z,20.46
2023-04-30T15:11:44.219Z,20.27
2023-04-30T15:14:17.408Z,20.48
2023-04-30T15:16:55.905Z,20.08
2023-04-30T15:19:26.224Z,19.94
2023-04-30T15:21:59.990Z,20.58
2023-04-30T15:24:32.446Z,20.97
2023-04-30T15:27:04.423Z,21.18
2023-04-30T15:29:39.224Z,20.77
2023-04-30T15:32:09.097Z,20.73
2023-04-30T15:34:38.205Z,20.79
2023-04-30T15:37:08.096Z,21.21
2023-04-30T15:39:47.791Z,21.60
2023-04-30T15:42:18.795Z,21.76
2023-04-30T15:44:55.299Z,21.37
2023-04-30T15:47:34.736Z,21.23
2023-04-30T15:50:02.844Z,20.14
2023-04-30T15:52:31.830Z,19.90
2023-04-30T15:55:08.229Z,20.73
2023-04-30T15:57:36.843Z,21.65
2023-04-30T16:00:08.897Z,21.06
2023-04-30T16:02:40.065Z,20.94
2023-04-30T16:05:19.141Z,19.53
2023-04-30T16:07:57.309Z,19.37
2023-04-30T16:10:42.228Z,19.24
2023-04-30T16:13:17.261Z,19.86
2023-04-30T16:15:50.161Z,19.20
2023-04-30T16:18:35.110Z,19.03
2023-04-30T16:21:09.299Z,19.16
2023-04-30T16:23:45.194Z,19.64
2023-04-30T16:26:34.266Z,19.36
2023-04-30T16:29:02.913Z,19.02
2023-04-30T16:31:34.680Z,19.11
2023-04-30T16:34:03.856Z,18.82
2023-04-30T16:36:35.682Z,18.56
2023-04-30T16:39:03.929Z,19.16
2023-04-30T16:41:40.955Z,19.97
2023-04-30T16:44:15.497Z,20.42
2023-04-30T16:46:49.152Z,20.65
2023-04-30T16:49:25.449Z,20.43
2023-04-30T16:52:00.323Z,20.48
2023-04-30T16:54:38.301Z,20.32
2023-04-30T16:57:10.961Z,20.47
2023-04-30T16:59:42.371Z,20.41
2023-04-30T17:02:16.565Z,20.19
2023-04-30T17:04:45.241Z,20.03
2023-04-30T17:07:25.121Z,19.95
2023-04-30T17:10:01.946Z,19.93
2023-04-30T17:12:47.135Z,19.64
2023-04-30T17:15:25.578Z,19.39
2023-04-30T17:17:53.949Z,18.87
2023-04-30T17:20:35.269Z,18.67
2023-04-30T17:23:12.954Z,18.39
2023-04-30T17:25:44.111Z,18.06
2023-04-30T17:28:28.495Z,18.03
2023-04-30T17:30:56.879Z,17.73
2023-04-30T17:33:41.347Z,18.07
2023-04-30T17:36:16.095Z,17.80
2023-04-30T17:41:30.910Z,17.63
2023-04-30T17:44:07.719Z,17.53
2023-04-30T17:46:42.381Z,17.34
2023-04-30T17:49:14.489Z,17.37
2023-04-30T17:51:46.790Z,17.22
2023-04-30T17:54:16.751Z,17.36
2023-04-30T17:56:50.217Z,17.15
2023-04-30T17:59:34.858Z,17.19
2023-04-30T18:02:11.416Z,17.04
2023-04-30T18:04:41.718Z,17.00
2023-04-30T18:07:13.489Z,16.84
2023-04-30T18:09:43.009Z,16.92
2023-04-30T18:12:14.571Z,16.87
2023-04-30T18:14:48.914Z,16.91
2023-04-30T18:17:21.072Z,16.83
2023-04-30T18:19:52.266Z,16.72
2023-04-30T18:22:27.322Z,16.61
2023-04-30T18:25:01.757Z,16.81
2023-04-30T18:27:34.338Z,16.55
2023-04-30T18:30:11.501Z,16.62
2023-04-30T18:32:46.966Z,16.57
2023-04-30T18:35:17.493Z,16.52
2023-04-30T18:37:55.011Z,16.58
2023-04-30T18:40:33.762Z,16.57
2023-04-30T18:43:04.757Z,16.43
2023-04-30T18:45:42.029Z,16.34
2023-04-30T18:48:13.090Z,16.21
2023-04-30T18:50:44.733Z,16.09
2023-04-30T18:53:23.064Z,16.07
2023-04-30T18:56:03.693Z,16.10
2023-04-30T18:58:38.190Z,16.21
2023-04-30T19:01:24.602Z,16.15
2023-04-30T19:04:07.376Z,16.15
2023-04-30T19:06:48.370Z,16.06
2023-04-30T19:09:32.902Z,15.67
2023-04-30T19:12:02.361Z,15.92
2023-04-30T19:14:34.529Z,15.89
2023-04-30T19:17:10.852Z,15.87
2023-04-30T19:19:44.278Z,15.94
2023-04-30T19:22:36.921Z,15.94
2023-04-30T19:25:16.948Z,15.77
2023-04-30T19:27:47.752Z,15.97
2023-04-30T19:30:22.879Z,15.89
2023-04-30T19:33:09.303Z,15.96
2023-04-30T19:35:39.340Z,15.85
2023-04-30T19:38:11.219Z,15.78
2023-04-30T19:40:48.671Z,15.82
2023-04-30T19:43:27.013Z,15.60
2023-04-30T19:46:07.761Z,15.70
2023-04-30T19:48:57.519Z,15.43
2023-04-30T19:51:48.909Z,15.46
2023-04-30T19:54:26.109Z,15.28
2023-04-30T19:57:01.611Z,15.21
2023-04-30T19:59:35.042Z,15.19
2023-04-30T20:02:11.113Z,15.07
2023-04-30T20:04:53.148Z,15.20
2023-04-30T20:07:36.157Z,15.02
2023-04-30T20:10:13.134Z,14.93
2023-04-30T20:12:46.497Z,15.02
2023-04-30T20:15:29.847Z,14.99
2023-04-30T20:18:02.961Z,15.09
2023-04-30T20:20:34.168Z,15.14
2023-04-30T20:23:22.793Z,14.98
2023-04-30T20:25:58.226Z,14.86
2023-04-30T20:28:35.218Z,14.99
2023-04-30T20:31:09.738Z,14.80
2023-04-30T20:33:41.300Z,14.87
2023-04-30T20:36:23.597Z,14.78
2023-04-30T20:38:58.490Z,14.78
2023-04-30T20:41:28.672Z,14.61
2023-04-30T20:44:04.189Z,14.68
2023-04-30T20:46:36.987Z,14.91
2023-04-30T20:49:07.350Z,14.71
2023-04-30T20:51:46.690Z,14.79
2023-04-30T20:54:25.339Z,14.87
2023-04-30T20:56:58.720Z,14.63
2023-04-30T20:59:32.393Z,14.76
2023-04-30T21:02:01.756Z,14.69
2023-04-30T21:04:31.077Z,14.58
2023-04-30T21:07:00.894Z,14.71
2023-04-30T21:09:34.887Z,14.58
2023-04-30T21:12:08.292Z,14.60
2023-04-30T21:14:39.925Z,14.34
2023-04-30T21:17:16.094Z,14.43
2023-04-30T21:19:45.384Z,14.34
2023-04-30T21:22:28.232Z,14.45
2023-04-30T21:25:00.068Z,14.31
2023-04-30T21:27:28.618Z,14.24
2023-04-30T21:29:58.012Z,14.41
2023-04-30T21:32:28.763Z,14.19
2023-04-30T21:34:59.879Z,13.99
2023-04-30T21:37:32.192Z,14.21
2023-04-30T21:40:09.680Z,14.15
2023-04-30T21:42:40.532Z,14.27
2023-04-30T21:45:11.640Z,14.05
2023-04-30T21:47:44.785Z,14.11
2023-04-30T21:50:13.646Z,13.99
2023-04-30T21:52:45.976Z,13.87
2023-04-30T21:55:20.151Z,13.95
2023-04-30T21:57:48.357Z,13.95
2023-04-30T22:00:18.342Z,13.92
2023-04-30T22:02:56.010Z,13.92
2023-04-30T22:05:24.333Z,13.77
2023-04-30T22:08:03.555Z,13.57
2023-04-30T22:10:35.013Z,13.60
2023-04-30T22:13:12.059Z,13.70
2023-04-30T22:15:48.252Z,13.77
2023-04-30T22:18:20.505Z,13.69
2023-04-30T22:20:53.849Z,13.69
2023-04-30T22:23:24.482Z,13.54
2023-04-30T22:25:58.366Z,13.67
2023-04-30T22:28:28.346Z,13.61
2023-04-30T22:31:01.555Z,13.51
2023-04-30T22:33:32.456Z,13.49
2023-04-30T22:36:03.831Z,13.58
2023-04-30T22:38:48.834Z,13.17
2023-04-30T22:41:17.593Z,13.27
2023-04-30T22:44:01.947Z,13.28
2023-04-30T22:46:40.749Z,13.21
2023-04-30T22:49:17.089Z,13.17
2023-04-30T22:51:53.114Z,13.09
2023-04-30T22:54:24.142Z,13.30
2023-04-30T22:56:54.908Z,12.93
2023-04-30T22:59:23.658Z,13.00
2023-04-30T23:01:52.258Z,13.17
2023-04-30T23:04:22.854Z,13.17
2023-04-30T23:06:54.738Z,13.07
2023-04-30T23:09:36.169Z,12.95
2023-04-30T23:12:05.712Z,13.21
2023-04-30T23:14:37.208Z,12.95
2023-04-30T23:17:19.958Z,13.02
2023-04-30T23:19:49.987Z,12.88
2023-04-30T23:22:24.597Z,12.67
2023-04-30T23:25:25.887Z,12.73
2023-04-30T23:28:01.433Z,13.06
2023-04-30T23:30:31.820Z,13.05
2023-04-30T23:33:02.963Z,12.78
2023-04-30T23:35:37.541Z,12.83
2023-04-30T23:38:09.395Z,12.67
2023-04-30T23:40:48.168Z,12.65
2023-04-30T23:43:17.805Z,12.71
2023-04-30T23:45:47.407Z,12.53
2023-04-30T23:48:26.272Z,12.87
2023-04-30T23:51:02.115Z,12.52
2023-04-30T23:53:34.952Z,12.40
2023-04-30T23:56:20.742Z,12.68
2023-04-30T23:58:49.685Z,12.46
